createdAt,value
2023-04-15T00:00:00.208Z,59.60
2023-04-15T00:02:29.604Z,59.63
2023-04-15T00:04:57.445Z,60.14
2023-04-15T00:07:25.211Z,59.80
2023-04-15T00:09:55.207Z,60.30
2023-04-15T00:12:23.021Z,60.79
2023-04-15T00:14:51.147Z,61.22
2023-04-15T00:17:19.281Z,60.99
2023-04-15T00:19:48.485Z,61.37
2023-04-15T00:22:16.302Z,61.55
2023-04-15T00:24:44.170Z,61.11
2023-04-15T00:27:12.514Z,61.06
2023-04-15T00:29:40.275Z,61.09
2023-04-15T00:32:09.261Z,61.22
2023-04-15T00:34:37.304Z,61.27
2023-04-15T00:37:06.412Z,61.25
2023-04-15T00:39:34.190Z,61.55
2023-04-15T00:42:02.423Z,61.69
2023-04-15T00:44:30.172Z,61.48
2023-04-15T00:46:58.657Z,61.63
2023-04-15T00:49:27.169Z,61.58
2023-04-15T00:51:54.920Z,61.54
2023-04-15T00:54:24.100Z,62.16
2023-04-15T00:56:52.000Z,62.16
2023-04-15T00:59:19.907Z,62.10
2023-04-15T01:01:48.517Z,62.04
2023-04-15T01:04:17.299Z,61.96
2023-04-15T01:06:45.241Z,62.41
2023-04-15T01:09:13.128Z,62.19
2023-04-15T01:11:42.359Z,62.78
2023-04-15T01:14:10.852Z,62.24
2023-04-15T01:16:39.917Z,62.70
2023-04-15T01:19:09.808Z,63.52
2023-04-15T01:21:38.594Z,63.55
2023-04-15T01:24:11.031Z,63.87
2023-04-15T01:26:43.044Z,63.83
2023-04-15T01:29:12.022Z,63.80
2023-04-15T01:31:40.176Z,63.95
2023-04-15T01:34:10.413Z,64.15
2023-04-15T01:36:38.167Z,64.38
2023-04-15T01:39:06.644Z,64.17
2023-04-15T01:41:34.409Z,64.55
2023-04-15T01:44:03.586Z,64.81
2023-04-15T01:46:31.395Z,64.76
2023-04-15T01:48:59.500Z,64.81
2023-04-15T01:51:27.742Z,64.86
2023-04-15T01:53:56.898Z,66.38
2023-04-15T01:56:25.415Z,66.58
2023-04-15T01:58:53.398Z,66.35
2023-04-15T02:01:22.724Z,66.81
2023-04-15T02:03:50.713Z,66.87
2023-04-15T02:06:21.057Z,67.39
2023-04-15T02:08:48.849Z,67.56
2023-04-15T02:11:16.649Z,67.34
2023-04-15T02:13:44.556Z,67.93
2023-04-15T02:16:18.820Z,67.84
2023-04-15T02:18:48.305Z,68.22
2023-04-15T02:21:16.203Z,67.92
2023-04-15T02:23:44.092Z,67.74
2023-04-15T02:26:11.926Z,68.54
2023-04-15T02:28:39.714Z,68.36
2023-04-15T02:31:08.235Z,68.69
2023-04-15T02:33:37.010Z,68.69
2023-04-15T02:36:07.576Z,69.06
2023-04-15T02:38:35.373Z,68.85
2023-04-15T02:41:03.260Z,68.81
2023-04-15T02:43:31.074Z,69.41
2023-04-15T02:45:58.973Z,69.20
2023-04-15T02:48:27.031Z,70.30
2023-04-15T02:50:54.801Z,70.73
2023-04-15T02:53:23.956Z,70.14
2023-04-15T02:55:51.687Z,70.50
2023-04-15T02:58:19.624Z,70.82
2023-04-15T03:00:47.424Z,71.64
2023-04-15T03:03:15.647Z,70.59
2023-04-15T03:06:13.698Z,71.05
2023-04-15T03:08:45.917Z,71.18
2023-04-15T03:12:02.129Z,71.59
2023-04-15T03:14:29.898Z,71.40
2023-04-15T03:17:44.660Z,72.51
2023-04-15T03:20:12.521Z,71.67
2023-04-15T03:22:41.965Z,72.54
2023-04-15T03:25:11.475Z,72.20
2023-04-15T03:27:57.171Z,72.14
2023-04-15T03:30:38.572Z,72.87
2023-04-15T03:33:34.705Z,71.72
2023-04-15T03:36:02.490Z,72.53
2023-04-15T03:38:30.282Z,73.27
2023-04-15T03:40:59.597Z,72.35
2023-04-15T03:43:49.825Z,72.86
2023-04-15T03:46:17.766Z,73.16
2023-04-15T03:48:46.503Z,72.78
2023-04-15T03:51:14.267Z,72.50
2023-04-15T03:53:42.108Z,73.43
2023-04-15T03:56:11.364Z,73.52
2023-04-15T03:58:46.732Z,74.00
2023-04-15T04:01:15.012Z,74.51
2023-04-15T04:03:45.812Z,73.75
2023-04-15T04:06:13.844Z,74.72
2023-04-15T04:08:41.680Z,74.54
2023-04-15T04:11:10.939Z,74.83
2023-04-15T04:13:38.826Z,74.21
2023-04-15T04:16:07.345Z,74.72
2023-04-15T04:18:35.406Z,75.44
2023-04-15T04:21:03.409Z,75.51
2023-04-15T04:23:31.443Z,74.90
2023-04-15T04:25:59.258Z,75.42
2023-04-15T04:28:28.554Z,76.13
2023-04-15T04:30:57.032Z,75.09
2023-04-15T04:33:24.894Z,76.21
2023-04-15T04:35:55.616Z,76.83
2023-04-15T04:38:23.418Z,75.77
2023-04-15T04:40:51.295Z,76.57
2023-04-15T04:43:19.262Z,77.36
2023-04-15T04:45:48.471Z,76.94
2023-04-15T04:48:17.038Z,76.77
2023-04-15T04:50:47.026Z,77.07
2023-04-15T04:53:14.863Z,77.50
2023-04-15T04:55:42.770Z,77.36
2023-04-15T04:58:10.682Z,77.41
2023-04-15T05:00:38.965Z,76.91
2023-04-15T05:03:08.470Z,77.21
2023-04-15T05:05:37.017Z,78.03
2023-04-15T05:08:04.920Z,77.92
2023-04-15T05:10:32.812Z,77.69
2023-04-15T05:13:00.658Z,78.13
2023-04-15T05:15:28.483Z,77.89
2023-04-15T05:17:56.433Z,77.74
2023-04-15T05:20:25.936Z,78.28
2023-04-15T05:22:53.814Z,78.57
2023-04-15T05:25:21.608Z,78.77
2023-04-15T05:27:49.365Z,79.10
2023-04-15T05:30:17.132Z,79.23
2023-04-15T05:32:45.021Z,79.06
2023-04-15T05:35:12.857Z,79.21
2023-04-15T05:37:42.066Z,79.34
2023-04-15T05:40:10.658Z,79.86
2023-04-15T05:42:38.740Z,79.18
2023-04-15T05:45:09.319Z,80.32
2023-04-15T05:47:37.380Z,80.89
2023-04-15T05:50:06.676Z,80.07
2023-04-15T05:52:34.618Z,81.69
2023-04-15T05:55:03.885Z,80.69
2023-04-15T05:57:31.663Z,81.91
2023-04-15T05:59:59.488Z,81.54
2023-04-15T06:02:28.019Z,82.06
2023-04-15T06:04:55.991Z,82.85
2023-04-15T06:07:23.874Z,82.89
2023-04-15T06:09:51.676Z,82.86
2023-04-15T06:12:20.826Z,82.69
2023-04-15T06:14:48.646Z,83.73
2023-04-15T06:17:18.583Z,84.54
2023-04-15T06:19:46.437Z,83.88
2023-04-15T06:22:14.259Z,86.00
2023-04-15T06:24:42.151Z,85.28
2023-04-15T06:27:09.950Z,86.24
2023-04-15T06:29:39.283Z,86.05
2023-04-15T06:32:07.792Z,86.62
2023-04-15T06:34:35.615Z,87.53
2023-04-15T06:37:05.100Z,86.93
2023-04-15T06:39:34.181Z,87.97
2023-04-15T06:42:02.057Z,87.44
2023-04-15T06:44:32.635Z,86.44
2023-04-15T06:47:03.046Z,86.59
2023-04-15T06:49:30.970Z,85.60
2023-04-15T06:51:58.739Z,83.89
2023-04-15T06:54:26.625Z,83.46
2023-04-15T06:56:54.536Z,83.12
2023-04-15T06:59:25.301Z,81.74
2023-04-15T07:01:55.299Z,81.62
2023-04-15T07:04:24.632Z,82.29
2023-04-15T07:06:52.504Z,81.77
2023-04-15T07:09:20.705Z,82.85
2023-04-15T07:11:48.863Z,81.62
2023-04-15T07:14:16.742Z,81.12
2023-04-15T07:16:44.573Z,80.09
2023-04-15T07:19:12.769Z,79.87
2023-04-15T07:21:42.344Z,79.30
2023-04-15T07:24:10.581Z,78.27
2023-04-15T07:26:40.517Z,78.39
2023-04-15T07:29:08.319Z,77.95
2023-04-15T07:31:36.853Z,76.30
2023-04-15T07:34:05.186Z,76.74
2023-04-15T07:36:33.028Z,76.09
2023-04-15T07:39:03.962Z,76.18
2023-04-15T07:41:32.111Z,75.30
2023-04-15T07:44:01.342Z,75.25
2023-04-15T07:46:29.347Z,74.47
2023-04-15T07:49:00.311Z,74.24
2023-04-15T07:51:29.331Z,74.26
2023-04-15T07:54:00.782Z,73.67
2023-04-15T07:56:32.637Z,72.69
2023-04-15T07:59:02.345Z,71.31
2023-04-15T08:01:30.682Z,70.96
2023-04-15T08:03:58.893Z,68.77
2023-04-15T08:06:27.411Z,69.65
2023-04-15T08:08:55.666Z,69.41
2023-04-15T08:11:24.550Z,67.32
2023-04-15T08:13:53.744Z,68.92
2023-04-15T08:16:26.888Z,67.90
2023-04-15T08:18:56.452Z,66.88
2023-04-15T08:21:25.044Z,65.86
2023-04-15T08:24:02.041Z,63.70
2023-04-15T08:26:29.877Z,63.12
2023-04-15T08:28:59.589Z,63.54
2023-04-15T08:31:31.642Z,63.37
2023-04-15T08:34:01.819Z,62.39
2023-04-15T08:36:29.645Z,63.79
2023-04-15T08:38:57.515Z,62.85
2023-04-15T08:41:26.477Z,62.12
2023-04-15T08:43:57.937Z,60.87
2023-04-15T08:46:45.360Z,60.49
2023-04-15T08:49:13.704Z,60.66
2023-04-15T08:51:42.392Z,58.87
2023-04-15T08:54:10.631Z,59.39
2023-04-15T08:56:40.806Z,59.42
2023-04-15T08:59:12.529Z,59.16
2023-04-15T09:01:42.163Z,59.30
2023-04-15T09:04:10.475Z,60.16
2023-04-15T09:06:38.315Z,60.37
2023-04-15T09:09:06.111Z,60.55
2023-04-15T09:11:36.279Z,56.37
2023-04-15T09:14:04.033Z,56.94
2023-04-15T09:16:32.585Z,54.94
2023-04-15T09:19:02.153Z,53.47
2023-04-15T09:21:33.902Z,52.57
2023-04-15T09:24:05.879Z,54.20
2023-04-15T09:26:40.287Z,53.62
2023-04-15T09:29:09.747Z,53.00
2023-04-15T09:31:38.543Z,52.77
2023-04-15T09:34:26.205Z,52.29
2023-04-15T09:36:56.883Z,51.61
2023-04-15T09:39:25.102Z,50.47
2023-04-15T09:42:08.883Z,49.40
2023-04-15T09:44:36.722Z,50.30
2023-04-15T09:47:04.505Z,50.08
2023-04-15T09:49:38.713Z,51.78
2023-04-15T09:52:06.842Z,51.76
2023-04-15T09:54:36.447Z,52.73
2023-04-15T09:57:09.057Z,52.30
2023-04-15T09:59:42.190Z,53.25
2023-04-15T10:02:11.551Z,52.05
2023-04-15T10:04:42.336Z,51.68
2023-04-15T10:07:15.193Z,49.68
2023-04-15T10:09:47.407Z,49.80
2023-04-15T10:12:18.646Z,48.75
2023-04-15T10:14:53.431Z,47.02
2023-04-15T10:17:24.188Z,46.83
2023-04-15T10:19:58.101Z,48.46
2023-04-15T10:22:27.251Z,49.27
2023-04-15T10:24:55.729Z,49.77
2023-04-15T10:27:24.007Z,48.43
2023-04-15T10:29:52.614Z,51.97
2023-04-15T10:32:28.701Z,53.65
2023-04-15T10:34:58.528Z,53.03
2023-04-15T10:37:36.056Z,52.54
2023-04-15T10:40:26.086Z,52.93
2023-04-15T10:42:54.547Z,52.76
2023-04-15T10:45:22.415Z,51.97
2023-04-15T10:47:55.151Z,52.47
2023-04-15T10:50:27.838Z,51.26
2023-04-15T10:52:58.594Z,51.58
2023-04-15T10:55:34.093Z,49.36
2023-04-15T10:58:03.283Z,49.11
2023-04-15T11:00:32.574Z,51.00
2023-04-15T11:03:06.284Z,51.97
2023-04-15T11:06:04.037Z,53.38
2023-04-15T11:09:07.975Z,52.69
2023-04-15T11:12:12.171Z,53.51
2023-04-15T11:14:43.739Z,53.83
2023-04-15T11:17:16.336Z,52.68
2023-04-15T11:19:44.663Z,55.39
2023-04-15T11:22:13.068Z,55.69
2023-04-15T11:24:50.660Z,55.03
2023-04-15T11:27:26.554Z,55.41
2023-04-15T11:29:54.464Z,56.62
2023-04-15T11:32:23.126Z,57.04
2023-04-15T11:34:52.921Z,57.20
2023-04-15T11:37:29.678Z,56.92
2023-04-15T11:39:58.952Z,57.42
2023-04-15T11:42:31.572Z,57.01
2023-04-15T11:45:15.756Z,57.69
2023-04-15T11:47:44.554Z,55.69
2023-04-15T11:50:16.641Z,55.74
2023-04-15T11:52:54.168Z,57.11
2023-04-15T11:55:24.987Z,57.14
2023-04-15T11:58:08.221Z,57.28
2023-04-15T12:00:41.150Z,56.70
2023-04-15T12:03:16.127Z,57.32
2023-04-15T12:06:06.109Z,56.77
2023-04-15T12:08:50.102Z,56.48
2023-04-15T12:11:21.640Z,56.63
2023-04-15T12:13:51.498Z,55.38
2023-04-15T12:16:24.730Z,56.13
2023-04-15T12:18:53.440Z,56.46
2023-04-15T12:21:21.815Z,56.71
2023-04-15T12:23:50.904Z,55.32
2023-04-15T12:26:42.394Z,55.43
2023-04-15T12:29:11.635Z,52.98
2023-04-15T12:31:48.496Z,53.44
2023-04-15T12:34:18.953Z,52.93
2023-04-15T12:36:46.914Z,54.63
2023-04-15T12:39:14.911Z,53.01
2023-04-15T12:41:44.924Z,52.51
2023-04-15T12:44:12.761Z,53.28
2023-04-15T12:46:41.536Z,52.79
2023-04-15T12:49:14.678Z,52.61
2023-04-15T12:51:44.989Z,53.51
2023-04-15T12:54:16.697Z,54.10
2023-04-15T12:56:46.439Z,52.31
2023-04-15T12:59:14.278Z,52.74
2023-04-15T13:01:44.053Z,53.55
2023-04-15T13:04:12.327Z,52.75
2023-04-15T13:06:40.257Z,52.93
2023-04-15T13:09:08.181Z,52.14
2023-04-15T13:11:36.532Z,52.31
2023-04-15T13:14:07.004Z,53.59
2023-04-15T13:16:35.985Z,53.08
2023-04-15T13:19:08.051Z,50.64
2023-04-15T13:21:36.511Z,50.90
2023-04-15T13:24:07.269Z,51.75
2023-04-15T13:26:36.049Z,52.95
2023-04-15T13:29:05.187Z,53.02
2023-04-15T13:31:33.025Z,53.05
2023-04-15T13:34:00.936Z,52.68
2023-04-15T13:36:28.777Z,54.17
2023-04-15T13:38:57.005Z,55.82
2023-04-15T13:41:24.820Z,55.07
2023-04-15T13:43:54.329Z,54.32
2023-04-15T13:46:23.573Z,54.45
2023-04-15T13:48:51.393Z,53.33
2023-04-15T13:51:19.251Z,54.82
2023-04-15T13:53:47.080Z,55.16
2023-04-15T13:56:14.905Z,52.47
2023-04-15T13:58:42.777Z,52.58
2023-04-15T14:01:10.895Z,50.58
2023-04-15T14:03:40.408Z,53.36
2023-04-15T14:06:15.729Z,52.71
2023-04-15T14:08:43.785Z,51.78
2023-04-15T14:11:11.764Z,52.73
2023-04-15T14:13:40.708Z,52.39
2023-04-15T14:16:13.278Z,51.90
2023-04-15T14:18:42.700Z,52.06
2023-04-15T14:21:10.494Z,53.16
2023-04-15T14:23:38.382Z,53.66
2023-04-15T14:26:06.560Z,52.85
2023-04-15T14:28:34.391Z,52.74
2023-04-15T14:31:02.574Z,53.49
2023-04-15T14:33:30.441Z,53.73
2023-04-15T14:35:59.627Z,53.24
2023-04-15T14:38:27.730Z,53.45
2023-04-15T14:40:55.499Z,52.87
2023-04-15T14:43:23.249Z,51.38
2023-04-15T14:45:51.993Z,51.20
2023-04-15T14:48:23.024Z,52.94
2023-04-15T14:50:50.865Z,54.09
2023-04-15T14:53:21.683Z,53.25
2023-04-15T14:55:49.634Z,52.86
2023-04-15T14:58:17.614Z,55.13
2023-04-15T15:00:45.504Z,53.97
2023-04-15T15:03:14.756Z,55.21
2023-04-15T15:05:43.632Z,54.87
2023-04-15T15:08:11.849Z,54.44
2023-04-15T15:10:48.692Z,55.56
2023-04-15T15:13:21.054Z,56.84
2023-04-15T15:15:50.225Z,57.85
2023-04-15T15:18:21.562Z,58.45
2023-04-15T15:20:49.505Z,58.99
2023-04-15T15:23:17.521Z,57.12
2023-04-15T15:25:47.298Z,57.74
2023-04-15T15:28:15.319Z,58.03
2023-04-15T15:30:43.214Z,57.47
2023-04-15T15:33:13.922Z,58.61
2023-04-15T15:35:42.073Z,58.59
2023-04-15T15:38:12.261Z,57.41
2023-04-15T15:40:40.162Z,57.69
2023-04-15T15:43:09.422Z,58.35
2023-04-15T15:45:37.246Z,58.89
2023-04-15T15:48:06.574Z,59.04
2023-04-15T15:50:35.065Z,60.72
2023-04-15T15:53:02.909Z,59.67
2023-04-15T15:55:30.707Z,59.43
2023-04-15T15:57:58.462Z,60.35
2023-04-15T16:00:27.623Z,59.45
2023-04-15T16:03:06.591Z,60.08
2023-04-15T16:05:34.829Z,60.65
2023-04-15T16:08:02.635Z,59.73
2023-04-15T16:10:30.675Z,59.95
2023-04-15T16:12:58.493Z,60.09
2023-04-15T16:15:27.655Z,62.32
2023-04-15T16:17:55.526Z,62.56
2023-04-15T16:20:23.431Z,63.65
2023-04-15T16:22:51.273Z,63.70
2023-04-15T16:25:19.582Z,61.48
2023-04-15T16:28:00.758Z,63.01
2023-04-15T16:30:30.513Z,63.94
2023-04-15T16:32:58.439Z,63.74
2023-04-15T16:35:26.277Z,63.69
2023-04-15T16:37:54.002Z,64.68
2023-04-15T16:40:22.055Z,64.49
2023-04-15T16:42:50.637Z,63.90
2023-04-15T16:45:20.537Z,65.11
2023-04-15T16:47:49.788Z,65.14
2023-04-15T16:50:17.844Z,65.97
2023-04-15T16:52:45.666Z,67.17
2023-04-15T16:55:13.473Z,66.42
2023-04-15T16:58:02.968Z,66.62
2023-04-15T17:00:29.697Z,66.60
2023-04-15T17:02:59.066Z,66.40
2023-04-15T17:05:27.990Z,66.41
2023-04-15T17:07:55.934Z,65.63
2023-04-15T17:10:23.894Z,65.27
2023-04-15T17:12:52.623Z,66.27
2023-04-15T17:15:21.415Z,67.18
2023-04-15T17:17:49.269Z,68.07
2023-04-15T17:20:18.662Z,68.46
2023-04-15T17:22:46.620Z,68.36
2023-04-15T17:25:14.746Z,67.63
2023-04-15T17:27:42.725Z,67.62
2023-04-15T17:30:11.714Z,68.85
2023-04-15T17:32:40.140Z,69.34
2023-04-15T17:35:09.178Z,68.91
2023-04-15T17:37:38.488Z,69.05
2023-04-15T17:40:08.768Z,69.16
2023-04-15T17:42:36.853Z,69.71
2023-04-15T17:45:04.953Z,69.48
2023-04-15T17:47:33.018Z,70.19
2023-04-15T17:50:00.881Z,69.87
2023-04-15T17:52:28.937Z,70.76
2023-04-15T17:54:58.032Z,70.80
2023-04-15T17:57:26.228Z,71.28
2023-04-15T17:59:54.101Z,71.33
2023-04-15T18:02:21.970Z,71.12
2023-04-15T18:04:49.975Z,70.95
2023-04-15T18:07:18.084Z,71.50
2023-04-15T18:09:46.214Z,71.52
2023-04-15T18:12:15.330Z,72.80
2023-04-15T18:15:09.726Z,73.00
2023-04-15T18:17:53.130Z,73.36
2023-04-15T18:20:32.392Z,73.44
2023-04-15T18:23:19.734Z,74.00
2023-04-15T18:25:51.983Z,73.61
2023-04-15T18:28:39.259Z,74.38
2023-04-15T18:31:24.335Z,74.69
2023-04-15T18:33:52.202Z,73.69
2023-04-15T18:36:20.328Z,73.59
2023-04-15T18:38:48.120Z,74.17
2023-04-15T18:41:15.997Z,74.86
2023-04-15T18:43:45.160Z,74.65
2023-04-15T18:46:13.767Z,75.25
2023-04-15T18:48:41.848Z,75.31
2023-04-15T18:51:09.796Z,75.16
2023-04-15T18:53:37.582Z,74.71
2023-04-15T18:56:05.595Z,74.08
2023-04-15T18:59:09.991Z,74.71
2023-04-15T19:01:25.490Z,75.64
2023-04-15T19:03:53.474Z,75.90
2023-04-15T19:06:22.296Z,76.68
2023-04-15T19:08:50.111Z,77.36
2023-04-15T19:11:17.904Z,77.79
2023-04-15T19:13:46.269Z,77.73
2023-04-15T19:16:14.351Z,77.82
2023-04-15T19:18:46.949Z,77.98
2023-04-15T19:21:14.879Z,77.58
2023-04-15T19:23:43.847Z,78.04
2023-04-15T19:26:13.062Z,79.22
2023-04-15T19:28:41.325Z,80.32
2023-04-15T19:31:09.934Z,79.94
2023-04-15T19:33:37.931Z,79.69
2023-04-15T19:36:08.462Z,80.22
2023-04-15T19:38:37.340Z,80.62
2023-04-15T19:41:05.921Z,82.09
2023-04-15T19:43:34.508Z,81.53
2023-04-15T19:46:02.909Z,81.92
2023-04-15T19:48:30.903Z,81.95
2023-04-15T19:50:59.837Z,81.71
2023-04-15T19:53:29.156Z,82.82
2023-04-15T19:55:58.775Z,81.71
2023-04-15T19:58:26.660Z,81.62
2023-04-15T20:00:54.538Z,81.01
2023-04-15T20:03:22.578Z,81.70
2023-04-15T20:05:50.639Z,81.65
2023-04-15T20:08:18.503Z,80.98
2023-04-15T20:10:47.739Z,83.38
2023-04-15T20:13:16.282Z,83.97
2023-04-15T20:15:44.921Z,83.52
2023-04-15T20:18:12.744Z,84.50
2023-04-15T20:20:41.476Z,83.89
2023-04-15T20:23:09.421Z,83.55
2023-04-15T20:25:37.248Z,84.88
2023-04-15T20:28:06.485Z,84.68
2023-04-15T20:30:34.498Z,83.64
2023-04-15T20:33:07.552Z,83.76
2023-04-15T20:35:35.466Z,83.26
2023-04-15T20:38:04.590Z,84.32
2023-04-15T20:40:33.665Z,83.61
2023-04-15T20:43:04.685Z,84.08
2023-04-15T20:45:34.340Z,83.78
2023-04-15T20:48:02.691Z,83.11
2023-04-15T20:50:30.790Z,82.96
2023-04-15T20:52:58.816Z,83.83
2023-04-15T20:55:28.324Z,84.83
2023-04-15T20:57:58.373Z,85.12
2023-04-15T21:00:26.202Z,84.15
2023-04-15T21:02:57.878Z,83.48
2023-04-15T21:05:25.836Z,84.44
2023-04-15T21:07:54.497Z,84.04
2023-04-15T21:10:22.586Z,84.04
2023-04-15T21:12:50.549Z,83.90
2023-04-15T21:15:18.591Z,84.20
2023-04-15T21:17:46.449Z,85.34
2023-04-15T21:20:18.925Z,84.51
2023-04-15T21:22:46.977Z,84.22
2023-04-15T21:25:15.129Z,83.82
2023-04-15T21:27:43.324Z,83.54
2023-04-15T21:30:12.745Z,83.12
2023-04-15T21:32:43.333Z,84.31
2023-04-15T21:35:11.382Z,84.22
2023-04-15T21:37:43.368Z,84.66
2023-04-15T21:40:11.811Z,85.52
2023-04-15T21:42:39.817Z,85.29
2023-04-15T21:45:08.895Z,85.53
2023-04-15T21:48:06.776Z,85.78
2023-04-15T21:50:25.161Z,85.72
2023-04-15T21:52:54.548Z,85.66
2023-04-15T21:55:25.739Z,86.57
2023-04-15T21:57:53.928Z,86.33
2023-04-15T22:00:23.188Z,86.76
2023-04-15T22:02:51.267Z,86.96
2023-04-15T22:05:19.549Z,86.98
2023-04-15T22:07:50.704Z,86.87
2023-04-15T22:10:23.056Z,86.94
2023-04-15T22:12:51.156Z,86.66
2023-04-15T22:15:19.324Z,87.57
2023-04-15T22:17:47.565Z,87.51
2023-04-15T22:20:15.737Z,86.44
2023-04-15T22:22:44.843Z,87.30
2023-04-15T22:25:13.148Z,86.94
2023-04-15T22:27:42.875Z,87.91
2023-04-15T22:30:11.885Z,87.66
2023-04-15T22:32:40.182Z,87.67
2023-04-15T22:35:11.195Z,88.27
2023-04-15T22:37:42.334Z,88.63
2023-04-15T22:40:11.413Z,88.45
2023-04-15T22:42:39.517Z,87.22
2023-04-15T22:45:10.819Z,87.75
2023-04-15T22:47:39.120Z,87.97
2023-04-15T22:50:08.650Z,87.36
2023-04-15T22:52:36.796Z,87.88
2023-04-15T22:55:05.493Z,87.96
2023-04-15T22:57:33.657Z,86.94
2023-04-15T23:00:01.662Z,87.84
2023-04-15T23:02:31.195Z,87.40
2023-04-15T23:04:59.226Z,87.48
2023-04-15T23:07:29.638Z,88.14
2023-04-15T23:09:58.151Z,87.94
2023-04-15T23:12:26.212Z,88.06
2023-04-15T23:14:54.147Z,88.45
2023-04-15T23:17:22.074Z,89.65
2023-04-15T23:19:51.718Z,89.29
2023-04-15T23:22:20.107Z,89.90
2023-04-15T23:24:48.093Z,89.75
2023-04-15T23:27:17.693Z,89.98
2023-04-15T23:29:46.110Z,89.85
2023-04-15T23:32:13.982Z,90.29
2023-04-15T23:34:41.791Z,91.42
2023-04-15T23:37:11.431Z,91.48
2023-04-15T23:39:39.250Z,92.92
2023-04-15T23:42:07.344Z,93.88
2023-04-15T23:44:35.114Z,94.51
2023-04-15T23:47:02.891Z,95.28
2023-04-15T23:49:30.600Z,95.35
2023-04-15T23:51:58.485Z,97.17
2023-04-15T23:54:27.592Z,98.42
2023-04-15T23:56:55.614Z,100.00
2023-04-15T23:59:23.365Z,99.98
